Terminal Aerodrome Forecast
Issued by NWS Norman, OK

Home | Current Version | Previous Version | Text Only | Print | Product List | Glossary On
Versions: 1 2 3 4 5 6 7 8 9 10 11 12 13 14 15 16 17 18 19 20 21 22 23 24 25 26 27 28 29 30
000
FTUS44 KOUN 221720
TAFOKC
TAF
KOKC 221720Z 2218/2318 23006KT P6SM BKN023 OVC250
     FM230100 04010KT P6SM VCSH OVC035
     FM230400 35012KT P6SM SHRA OVC030 PROB30 2306/2310 5SM TSRA
      OVC025CB
     FM231200 02011KT 4SM -RA BR OVC007=

USA.gov is the U.S. government's official web portal to all federal, state and local government web resources and services.